Etusivu
METAR-TAF:

METAR-TAF

Lentoasemat :

Whale Coven lentoasema

Whale Cove, Nunavut, Kanada

Leveyspiiri: 62-14N, Pituuspiiri: 092-36W, korkeus merenpinnasta: 20 m

Tämänhetkinen sää

Tämä raportti tehtiin 28 minuuttia sitten, kello 16.00 UTC
Tuuli 9 kn luoteesta
Lämpötila -29°C
Kosteus 68%
Ilmanpaine 1036 hPa
Näkyvyys: 4.8 km
Muutamia pilviä 500 ft:n korkeudessa
Muutamia pilviä 1000 ft:n korkeudessa
utua

METAR: CYXN 251600Z 31009KT 3SM BR FEW005 FEW010 M29/M33 A3060 RMK ST1SC1 SC TR SLP366

Aika: 10:28 (16:28 UTC)


TAF: puuttuu

Säähavainnot ja -ennusteet yli 4000 lentoasemalta (METAR- ja TAF-raportit).

Käytössä olevat sääasemat on merkitty karttaan keltaisilla ja punaisilla pisteillä.

Aseta hiiri pisteen päälle nähdäksesi sääaseman nimen.

Klikkaa sitten nähdäksesi säähavainnot ja -ennusteet.

Kartan vaihtaminen: klikkaa mustalla rastilla varustettuja vihreitä pisteitä, niin voit zoomata sisään; viivalla varustettua vihreää pistettä, niin voit zoomata ulos tai vihreitä nuolia, niin pääset viereisille kartoille.


METAR-TAF: